Anderson, California
Current Conditions -  °F | °C
As of 9:53 PM on Tuesday 25 Nov 2014 (Local Time) from KRDD Reporting Station
Clear Clear  
Wind Chill: 45°   Ceiling: Unl
Heat Index: 45°   Visibility: 10mi
Dew Point: 42°   Wind: 3mph
Humidity: 90%   Direction: 320°NW
Pressure: 30.37"   Gusts: NA
Location:  40.45°N, 122.3°W
Report Text: KRDD 260553Z AUTO 32003KT 10SM CLR 07/06 A3037 RMK AO2 SLP285 T00720056 10178 20072 58002
Loading
Personal Weather Stations






























Interactive Weather Map New forecast layout! Learn more

10-Day Weather Forecast

Advertisements
Track Severe Weather on mobile